Time;durP1;ratioP1;P1;durP2;ratioP2;P2;SDS_P1;SDS_P2;PMS_P1;PMS_P2;Temp;Humidity;BMP_temperature;BMP_pressure;BME280_temperature;BME280_humidity;BME280_pressure;Samples;Min_cycle;Max_cycle;Signal;HPM_P1;HPM_P2
2021/07/22 00:02:15;;;;;;;5.75;3.58;;;21.30;61.60;;;;;;2238451;55;20990;-84
2021/07/22 00:04:41;;;;;;;5.70;3.70;;;21.30;61.70;;;;;;2238843;56;21026;-84
2021/07/22 00:07:08;;;;;;;5.40;3.40;;;21.20;61.70;;;;;;2473384;55;20933;-84
2021/07/22 00:09:34;;;;;;;6.07;4.03;;;21.20;61.80;;;;;;2470323;55;20956;-85
2021/07/22 00:12:00;;;;;;;6.47;3.60;;;21.20;61.80;;;;;;2487507;55;21368;-84
2021/07/22 00:14:29;;;;;;;5.57;3.55;;;21.20;61.90;;;;;;2487558;55;20936;-84
2021/07/22 00:16:55;;;;;;;5.05;3.22;;;21.20;62.00;;;;;;2485679;55;20945;-84
2021/07/22 00:19:22;;;;;;;6.18;3.70;;;21.10;62.00;;;;;;2486337;55;21068;-85
2021/07/22 00:21:48;;;;;;;5.45;3.17;;;21.20;62.20;;;;;;2456531;55;21050;-84
2021/07/22 00:24:14;;;;;;;6.45;3.33;;;21.10;62.20;;;;;;2260900;56;20968;-85
2021/07/22 00:26:41;;;;;;;5.12;3.47;;;21.00;62.20;;;;;;2486496;55;20948;-84
2021/07/22 00:29:07;;;;;;;5.90;3.40;;;21.10;62.40;;;;;;2486420;55;20919;-85
2021/07/22 00:31:34;;;;;;;6.65;3.47;;;21.00;62.30;;;;;;2240962;56;21018;-85
2021/07/22 00:34:00;;;;;;;6.00;3.92;;;21.00;62.40;;;;;;2479029;55;21583;-85
2021/07/22 00:36:27;;;;;;;5.97;3.50;;;21.00;62.50;;;;;;2259459;55;20979;-85
2021/07/22 00:38:53;;;;;;;6.78;4.32;;;21.00;62.60;;;;;;2486145;55;21008;-84
2021/07/22 00:41:19;;;;;;;6.87;3.80;;;21.00;62.60;;;;;;2486588;55;21502;-85
2021/07/22 00:43:45;;;;;;;9.73;4.00;;;20.90;63.30;;;;;;2259347;56;20948;-83
2021/07/22 00:46:12;;;;;;;6.40;3.67;;;20.90;62.60;;;;;;2237351;56;21016;-85
2021/07/22 00:48:39;;;;;;;5.72;3.33;;;20.90;62.70;;;;;;2245587;56;22129;-85
2021/07/22 00:51:05;;;;;;;4.90;3.15;;;20.90;62.80;;;;;;2253760;56;21166;-85
2021/07/22 00:53:34;;;;;;;5.20;3.40;;;20.80;62.80;;;;;;2454393;55;20964;-84
2021/07/22 00:56:00;;;;;;;5.32;3.42;;;20.80;62.80;;;;;;2486022;55;21498;-84
2021/07/22 00:58:26;;;;;;;5.55;3.60;;;20.80;62.80;;;;;;2259042;56;22078;-85
2021/07/22 01:00:53;;;;;;;7.60;4.12;;;20.80;63.00;;;;;;2463386;55;20954;-84
2021/07/22 01:03:19;;;;;;;7.97;4.57;;;20.80;63.10;;;;;;2473498;55;21530;-84
2021/07/22 01:05:46;;;;;;;8.27;3.80;;;20.70;63.10;;;;;;2463025;55;20957;-85
2021/07/22 01:08:12;;;;;;;6.35;4.07;;;20.70;63.10;;;;;;2487225;55;20968;-85
2021/07/22 01:10:39;;;;;;;6.32;3.97;;;20.70;63.10;;;;;;2486667;55;20976;-84
2021/07/22 01:13:05;;;;;;;4.95;3.53;;;20.70;63.20;;;;;;2487457;55;20937;-86
2021/07/22 01:15:31;;;;;;;5.68;3.53;;;20.70;63.20;;;;;;2461903;55;22028;-85
2021/07/22 01:17:58;;;;;;;6.12;3.40;;;20.70;63.30;;;;;;2449348;55;21095;-83
2021/07/22 01:20:25;;;;;;;5.43;3.15;;;20.60;63.20;;;;;;2458917;55;21021;-85
2021/07/22 01:22:56;;;;;;;6.28;3.78;;;20.60;63.30;;;;;;2486928;55;21005;-84
2021/07/22 01:25:23;;;;;;;5.50;3.57;;;20.60;63.30;;;;;;2457309;55;21060;-84
2021/07/22 01:27:50;;;;;;;6.32;3.42;;;20.60;63.30;;;;;;2486794;55;20984;-83
2021/07/22 01:30:16;;;;;;;7.37;3.83;;;20.60;63.30;;;;;;2486736;55;20993;-83
2021/07/22 01:32:43;;;;;;;5.80;3.60;;;20.50;63.30;;;;;;2466409;55;22035;-85
2021/07/22 01:35:10;;;;;;;6.68;4.05;;;20.50;63.40;;;;;;2471954;55;21994;-84
2021/07/22 01:37:41;;;;;;;5.93;3.25;;;20.50;63.50;;;;;;2461493;55;21034;-85
2021/07/22 01:40:08;;;;;;;6.62;3.85;;;20.50;64.20;;;;;;2455040;55;21022;-86
2021/07/22 01:42:34;;;;;;;7.10;3.50;;;20.50;63.50;;;;;;2254774;56;20948;-85
2021/07/22 01:45:00;;;;;;;6.60;4.20;;;20.40;63.50;;;;;;2240220;56;21034;-85
2021/07/22 01:47:27;;;;;;;6.55;4.10;;;20.40;63.60;;;;;;2454112;55;21029;-84
2021/07/22 01:49:53;;;;;;;7.22;3.87;;;20.30;63.50;;;;;;2485636;55;20953;-85
2021/07/22 01:52:20;;;;;;;5.62;3.37;;;20.30;63.60;;;;;;2259570;56;20937;-85
2021/07/22 01:54:46;;;;;;;7.07;3.50;;;20.30;63.60;;;;;;2485282;55;20961;-84
2021/07/22 01:57:12;;;;;;;5.72;3.37;;;20.30;63.70;;;;;;2455700;55;21062;-84
2021/07/22 01:59:39;;;;;;;5.60;3.25;;;20.30;63.60;;;;;;2245747;56;21023;-85
2021/07/22 02:02:10;;;;;;;5.32;3.53;;;20.20;63.60;;;;;;2257052;56;20961;-86
2021/07/22 02:04:37;;;;;;;6.18;3.42;;;20.20;63.70;;;;;;2259975;56;22071;-85
2021/07/22 02:07:04;;;;;;;6.32;3.80;;;20.20;63.70;;;;;;2479389;55;21042;-85
2021/07/22 02:09:31;;;;;;;8.70;3.87;;;20.20;63.80;;;;;;2463039;55;20924;-85
2021/07/22 02:11:58;;;;;;;6.05;3.58;;;20.10;63.80;;;;;;2457664;55;21500;-84
2021/07/22 02:14:24;;;;;;;7.07;4.43;;;20.10;63.80;;;;;;2474125;55;21049;-85
2021/07/22 02:16:51;;;;;;;7.25;3.72;;;20.10;63.90;;;;;;2470403;55;21013;-86
2021/07/22 02:19:17;;;;;;;5.97;3.33;;;20.00;63.80;;;;;;2260969;56;22055;-84
2021/07/22 02:21:44;;;;;;;6.20;3.42;;;20.00;63.90;;;;;;2468873;55;21068;-85
2021/07/22 02:24:11;;;;;;;5.18;3.00;;;20.00;64.00;;;;;;2249497;56;20974;-86
2021/07/22 02:26:37;;;;;;;7.43;3.70;;;20.00;64.00;;;;;;2258755;56;21020;-84
2021/07/22 02:29:04;;;;;;;7.10;3.87;;;20.00;64.10;;;;;;2486135;55;21052;-85
2021/07/22 02:31:31;;;;;;;5.47;3.60;;;19.90;64.10;;;;;;2485825;55;21052;-84
2021/07/22 02:33:57;;;;;;;5.87;3.75;;;19.90;64.10;;;;;;2259438;56;20937;-84
2021/07/22 02:36:23;;;;;;;5.95;3.50;;;19.90;64.20;;;;;;2485943;55;21004;-85
2021/07/22 02:38:49;;;;;;;8.82;3.58;;;19.90;64.20;;;;;;2237224;55;21025;-84
2021/07/22 02:41:16;;;;;;;5.75;3.67;;;19.80;64.00;;;;;;2261263;56;20952;-86
2021/07/22 02:43:42;;;;;;;5.55;3.47;;;19.80;64.00;;;;;;2457680;55;20973;-84
2021/07/22 02:46:09;;;;;;;6.12;3.83;;;19.80;64.70;;;;;;2486397;55;20965;-86
2021/07/22 02:48:35;;;;;;;5.90;3.35;;;19.80;64.20;;;;;;2258335;56;22051;-85
2021/07/22 02:51:05;;;;;;;5.22;3.30;;;19.80;64.30;;;;;;2486020;55;20940;-85
2021/07/22 02:53:32;;;;;;;6.30;3.92;;;19.70;64.30;;;;;;2428360;56;21014;-85
2021/07/22 02:55:59;;;;;;;5.85;3.33;;;19.70;64.30;;;;;;2257092;56;21018;-84
2021/07/22 02:58:26;;;;;;;6.22;3.30;;;19.80;64.40;;;;;;2460707;55;20957;-85
2021/07/22 03:00:55;;;;;;;5.62;3.40;;;19.70;64.30;;;;;;2485645;55;21067;-85
2021/07/22 03:03:22;;;;;;;5.70;3.62;;;19.60;64.30;;;;;;2486001;55;21520;-85
2021/07/22 03:05:49;;;;;;;5.87;3.47;;;19.50;64.20;;;;;;2239908;56;21046;-85
2021/07/22 03:08:15;;;;;;;5.57;3.10;;;19.60;64.30;;;;;;2255708;56;21015;-86
2021/07/22 03:10:41;;;;;;;6.62;3.12;;;19.60;65.10;;;;;;2258226;55;20944;-84
2021/07/22 03:13:08;;;;;;;5.28;3.12;;;19.50;64.30;;;;;;2258928;56;21969;-84
2021/07/22 03:15:35;;;;;;;5.47;3.37;;;19.50;64.40;;;;;;2485381;55;20968;-85
2021/07/22 03:18:01;;;;;;;5.75;3.28;;;19.50;64.40;;;;;;2258686;56;20961;-84
2021/07/22 03:23:09;;;;;;;5.93;3.47;;;19.40;64.40;;;;;;2475145;55;22640;-67
2021/07/22 03:25:37;;;;;;;6.95;3.47;;;19.40;64.40;;;;;;2259357;55;20997;-67
2021/07/22 03:28:04;;;;;;;8.15;3.85;;;19.40;64.50;;;;;;2259812;55;21085;-68
2021/07/22 03:30:31;;;;;;;7.65;3.65;;;19.40;64.60;;;;;;2255205;55;21380;-67
2021/07/22 03:32:57;;;;;;;5.78;3.70;;;19.30;64.60;;;;;;2395179;55;21356;-68
2021/07/22 03:35:23;;;;;;;6.90;4.00;;;19.30;64.60;;;;;;2258870;55;20990;-67
2021/07/22 03:37:49;;;;;;;7.68;3.80;;;19.20;64.50;;;;;;2260556;55;21010;-68
2021/07/22 03:40:17;;;;;;;6.15;4.10;;;19.30;64.60;;;;;;2489519;55;20961;-68
2021/07/22 03:42:44;;;;;;;6.53;4.12;;;19.30;64.60;;;;;;2263611;55;20954;-68
2021/07/22 03:45:13;;;;;;;7.45;3.22;;;19.20;64.50;;;;;;2254855;55;21020;-69
2021/07/22 03:47:39;;;;;;;6.05;3.58;;;19.20;64.60;;;;;;2268530;55;22160;-69
2021/07/22 03:50:07;;;;;;;5.45;3.17;;;19.20;64.70;;;;;;2255857;55;20968;-67
2021/07/22 03:52:33;;;;;;;6.00;3.10;;;19.10;64.60;;;;;;2227408;56;21042;-66
2021/07/22 03:54:59;;;;;;;6.12;3.70;;;19.10;64.70;;;;;;2256495;55;21677;-68
2021/07/22 03:57:26;;;;;;;5.07;3.33;;;19.10;64.70;;;;;;2249534;55;20962;-67
2021/07/22 03:59:52;;;;;;;6.05;3.53;;;19.10;64.80;;;;;;2255027;55;21006;-69
2021/07/22 04:02:19;;;;;;;6.05;3.67;;;19.00;64.80;;;;;;2254516;55;20938;-68
2021/07/22 04:04:45;;;;;;;5.35;3.37;;;19.00;64.90;;;;;;2256034;55;21145;-67
2021/07/22 04:07:11;;;;;;;5.72;3.95;;;19.00;64.90;;;;;;2247444;55;20994;-68
2021/07/22 04:09:38;;;;;;;6.80;4.12;;;19.00;65.00;;;;;;2244238;55;22433;-68
2021/07/22 04:12:05;;;;;;;6.03;4.00;;;19.00;65.00;;;;;;2246383;54;20968;-67
2021/07/22 04:14:32;;;;;;;5.78;3.53;;;19.00;65.10;;;;;;2248670;55;20973;-68
2021/07/22 04:16:58;;;;;;;5.18;3.25;;;18.90;65.00;;;;;;2257253;55;20959;-66
2021/07/22 04:19:24;;;;;;;5.30;3.60;;;18.90;64.90;;;;;;2351230;55;21525;-70
2021/07/22 04:21:51;;;;;;;6.47;4.00;;;18.90;65.00;;;;;;2256416;55;22071;-67
2021/07/22 04:24:17;;;;;;;5.68;3.53;;;18.90;65.10;;;;;;2244511;55;21448;-69
2021/07/22 04:26:43;;;;;;;7.03;3.83;;;18.90;65.20;;;;;;2261879;54;21002;-67
2021/07/22 04:29:10;;;;;;;6.22;3.65;;;18.90;65.20;;;;;;2484662;55;20935;-68
2021/07/22 04:31:36;;;;;;;6.37;3.80;;;18.90;65.30;;;;;;2254928;55;20966;-69
2021/07/22 04:34:02;;;;;;;6.35;4.03;;;18.80;65.30;;;;;;2248752;55;20994;-67
2021/07/22 04:36:31;;;;;;;8.02;4.50;;;18.80;65.40;;;;;;2254161;55;20969;-68
2021/07/22 04:38:57;;;;;;;5.55;3.78;;;18.80;65.40;;;;;;2254072;55;20954;-68
2021/07/22 04:41:24;;;;;;;7.32;3.50;;;18.80;65.50;;;;;;2255879;55;21121;-67
2021/07/22 04:43:50;;;;;;;5.60;3.47;;;18.80;65.60;;;;;;2244961;55;21014;-68
2021/07/22 04:46:16;;;;;;;5.18;3.17;;;18.80;65.70;;;;;;2257942;55;20954;-70
2021/07/22 04:48:43;;;;;;;5.57;3.33;;;18.80;65.70;;;;;;2246923;55;21561;-67
2021/07/22 04:51:09;;;;;;;4.82;3.10;;;18.90;65.90;;;;;;2243586;56;20963;-67
2021/07/22 04:53:38;;;;;;;6.10;3.35;;;18.90;65.90;;;;;;2254111;55;20989;-68
2021/07/22 04:56:04;;;;;;;6.20;3.90;;;18.90;65.90;;;;;;2254543;55;20979;-69
2021/07/22 04:58:30;;;;;;;6.03;3.30;;;18.90;66.00;;;;;;2253690;55;21378;-68
2021/07/22 05:00:57;;;;;;;5.55;3.22;;;18.90;66.10;;;;;;2304517;55;20973;-69
2021/07/22 05:03:24;;;;;;;5.93;3.58;;;18.90;66.10;;;;;;2384818;54;20970;-69
2021/07/22 05:05:50;;;;;;;5.70;3.53;;;19.00;66.20;;;;;;2464009;55;20947;-67
2021/07/22 05:08:16;;;;;;;5.37;3.30;;;18.90;66.10;;;;;;2449164;54;20958;-69
2021/07/22 05:10:42;;;;;;;6.22;3.28;;;19.00;66.20;;;;;;2253292;54;22059;-68
2021/07/22 05:13:11;;;;;;;5.15;2.95;;;19.00;66.20;;;;;;2252773;54;21416;-68
2021/07/22 05:15:37;;;;;;;5.60;3.33;;;19.00;66.30;;;;;;2258767;55;20959;-68
2021/07/22 05:18:04;;;;;;;5.50;3.28;;;19.00;66.40;;;;;;2424340;55;20953;-67
2021/07/22 05:20:30;;;;;;;6.10;2.95;;;19.00;66.50;;;;;;2258931;55;21451;-68
2021/07/22 05:23:00;;;;;;;5.05;3.12;;;19.10;66.70;;;;;;2253911;55;21464;-68
2021/07/22 05:25:27;;;;;;;5.22;3.60;;;19.10;66.70;;;;;;2285166;55;20974;-68
2021/07/22 05:27:53;;;;;;;5.43;3.47;;;19.20;66.90;;;;;;2258170;55;21006;-70
2021/07/22 05:30:20;;;;;;;6.55;4.28;;;19.20;66.90;;;;;;2258734;55;21002;-67
2021/07/22 05:32:46;;;;;;;5.32;3.37;;;19.20;66.80;;;;;;2254867;55;22024;-68
2021/07/22 05:35:12;;;;;;;5.50;3.55;;;19.30;66.80;;;;;;2252734;55;21015;-68
2021/07/22 05:37:39;;;;;;;5.12;3.30;;;19.30;66.90;;;;;;2255951;55;21306;-67
2021/07/22 05:40:06;;;;;;;5.03;3.37;;;19.30;66.80;;;;;;2258727;55;21082;-67
2021/07/22 05:42:33;;;;;;;6.15;3.95;;;19.40;66.90;;;;;;2268644;55;20978;-68
2021/07/22 05:44:59;;;;;;;7.32;4.22;;;19.50;66.90;;;;;;2350953;55;20972;-69
2021/07/22 05:47:25;;;;;;;7.05;4.12;;;19.50;66.80;;;;;;2253256;55;20974;-67
2021/07/22 05:49:52;;;;;;;5.50;3.40;;;19.60;66.80;;;;;;2258280;55;20991;-68
2021/07/22 05:52:18;;;;;;;6.53;4.07;;;19.60;66.70;;;;;;2262477;55;22215;-67
2021/07/22 05:54:45;;;;;;;6.53;3.53;;;19.70;66.90;;;;;;2395863;55;20982;-69
2021/07/22 05:57:11;;;;;;;5.35;3.20;;;19.80;66.90;;;;;;2253068;55;21617;-69
2021/07/22 05:59:37;;;;;;;5.45;3.33;;;19.70;66.80;;;;;;2486056;55;20966;-68
2021/07/22 06:02:05;;;;;;;5.95;3.65;;;19.80;66.80;;;;;;2489057;55;20972;-68
2021/07/22 06:04:31;;;;;;;5.57;3.45;;;19.90;66.80;;;;;;2252014;55;21003;-69
2021/07/22 06:06:58;;;;;;;6.22;4.03;;;19.90;66.80;;;;;;2253211;55;20973;-70
2021/07/22 06:09:24;;;;;;;6.03;3.90;;;20.00;66.80;;;;;;2256935;55;21518;-68
2021/07/22 06:11:51;;;;;;;6.03;3.70;;;20.00;66.90;;;;;;2256867;55;20966;-70
2021/07/22 06:14:17;;;;;;;7.45;4.55;;;20.00;66.80;;;;;;2261419;55;21031;-67
2021/07/22 06:16:44;;;;;;;6.25;4.25;;;20.10;66.90;;;;;;2252433;55;21617;-70
2021/07/22 06:19:10;;;;;;;6.30;3.72;;;20.20;67.00;;;;;;2259876;55;21009;-69
2021/07/22 06:21:37;;;;;;;6.50;3.92;;;20.20;67.00;;;;;;2402888;55;22189;-69
2021/07/22 06:24:03;;;;;;;5.80;3.72;;;20.30;67.00;;;;;;2244063;55;21424;-67
2021/07/22 06:26:34;;;;;;;7.43;3.80;;;20.30;67.00;;;;;;2251821;55;21000;-69
2021/07/22 06:29:03;;;;;;;6.87;4.07;;;20.40;67.10;;;;;;2257745;55;21026;-70
2021/07/22 06:31:30;;;;;;;9.07;3.72;;;20.50;67.10;;;;;;2257939;55;22008;-69
2021/07/22 06:33:56;;;;;;;6.68;4.15;;;20.50;67.00;;;;;;2258742;55;20958;-69
2021/07/22 06:36:24;;;;;;;6.43;3.60;;;20.60;67.00;;;;;;2489252;55;20958;-68
2021/07/22 06:38:50;;;;;;;8.20;4.75;;;20.70;67.00;;;;;;2233496;56;21069;-69
2021/07/22 06:41:19;;;;;;;7.00;4.18;;;20.70;66.90;;;;;;2262991;55;20959;-68
2021/07/22 06:43:46;;;;;;;5.87;3.85;;;20.80;66.90;;;;;;2258399;55;21962;-68
2021/07/22 06:46:12;;;;;;;7.43;4.43;;;20.90;67.10;;;;;;2259307;55;22103;-70
2021/07/22 06:48:38;;;;;;;6.28;4.07;;;20.90;67.00;;;;;;2258908;55;21345;-69
2021/07/22 06:51:08;;;;;;;6.22;4.18;;;21.00;66.90;;;;;;2259107;55;20990;-69
2021/07/22 06:53:34;;;;;;;7.03;4.78;;;21.10;66.80;;;;;;2258587;55;21097;-67
2021/07/22 06:56:02;;;;;;;7.47;4.95;;;21.20;66.90;;;;;;2254086;55;21354;-68
2021/07/22 06:58:28;;;;;;;6.65;4.12;;;21.20;66.70;;;;;;2258501;55;20950;-67
2021/07/22 07:00:55;;;;;;;6.57;4.03;;;21.30;66.80;;;;;;2258730;55;20970;-68
2021/07/22 07:03:21;;;;;;;7.12;4.65;;;21.30;66.80;;;;;;2233332;56;21014;-68
2021/07/22 07:05:48;;;;;;;5.87;4.25;;;21.40;66.70;;;;;;2359627;55;21010;-70
2021/07/22 07:08:14;;;;;;;7.03;4.53;;;21.50;66.80;;;;;;2258874;55;21101;-68
2021/07/22 07:10:41;;;;;;;8.05;4.72;;;21.60;66.80;;;;;;2258648;55;21061;-68
2021/07/22 07:13:08;;;;;;;7.60;5.05;;;21.60;66.70;;;;;;2258788;55;21565;-68
2021/07/22 07:15:36;;;;;;;7.50;4.82;;;21.70;66.80;;;;;;2488768;55;21110;-67
2021/07/22 07:18:06;;;;;;;7.85;4.60;;;21.80;66.80;;;;;;2339855;55;20944;-67
2021/07/22 07:20:32;;;;;;;6.95;4.75;;;21.90;66.90;;;;;;2243243;55;21015;-70
2021/07/22 07:22:59;;;;;;;6.32;4.12;;;22.00;67.10;;;;;;2482272;55;20955;-69
2021/07/22 07:25:26;;;;;;;9.63;4.25;;;22.10;67.10;;;;;;2254203;55;20958;-69
2021/07/22 07:27:52;;;;;;;6.78;4.12;;;22.30;67.00;;;;;;2258660;55;21077;-69
2021/07/22 07:30:19;;;;;;;6.70;4.72;;;22.40;66.80;;;;;;2258666;55;20982;-70
2021/07/22 07:32:51;;;;;;;6.95;3.97;;;22.50;66.60;;;;;;2254702;55;20994;-68
2021/07/22 07:35:17;;;;;;;5.55;3.85;;;22.60;66.40;;;;;;2257576;55;21125;-70
2021/07/22 07:37:43;;;;;;;6.97;4.10;;;22.60;66.50;;;;;;2258609;55;20974;-68
2021/07/22 07:40:10;;;;;;;6.18;4.12;;;22.70;66.60;;;;;;2285115;55;22347;-68
2021/07/22 07:42:39;;;;;;;5.95;3.80;;;22.80;66.60;;;;;;2253066;55;20978;-68
2021/07/22 07:45:07;;;;;;;6.72;4.78;;;22.90;66.60;;;;;;2488401;55;21585;-70
2021/07/22 07:47:34;;;;;;;8.70;4.10;;;23.00;66.40;;;;;;2387642;55;21010;-69
2021/07/22 07:50:00;;;;;;;6.57;4.10;;;23.10;66.40;;;;;;2258641;55;20966;-69
2021/07/22 07:52:28;;;;;;;7.00;4.37;;;23.10;66.10;;;;;;2227739;56;20967;-69
2021/07/22 07:54:54;;;;;;;6.32;4.45;;;23.20;66.00;;;;;;2258448;55;21033;-68
2021/07/22 07:57:20;;;;;;;5.97;4.12;;;23.30;65.60;;;;;;2258755;55;21000;-68
2021/07/22 07:59:47;;;;;;;10.98;4.85;;;23.30;65.40;;;;;;2274646;55;21002;-69
2021/07/22 08:02:16;;;;;;;6.15;4.12;;;23.40;65.30;;;;;;2258403;55;21006;-68
2021/07/22 08:04:43;;;;;;;7.12;4.62;;;23.40;65.20;;;;;;2485539;54;21728;-68
2021/07/22 08:07:09;;;;;;;7.78;4.50;;;23.50;65.30;;;;;;2253493;55;20958;-70
2021/07/22 08:09:36;;;;;;;7.55;4.57;;;23.50;65.20;;;;;;2258351;55;20930;-69
2021/07/22 08:12:02;;;;;;;6.68;4.28;;;23.60;65.10;;;;;;2259291;55;20952;-68
2021/07/22 08:14:31;;;;;;;9.88;4.32;;;23.60;65.00;;;;;;2259810;55;20954;-68
2021/07/22 08:16:57;;;;;;;8.20;4.60;;;23.70;65.00;;;;;;2309911;55;20934;-68
2021/07/22 08:19:23;;;;;;;7.75;4.95;;;23.80;65.00;;;;;;2259195;55;21081;-68
2021/07/22 08:21:50;;;;;;;6.47;4.40;;;23.80;64.80;;;;;;2258481;55;20950;-68
2021/07/22 08:24:16;;;;;;;8.15;4.45;;;23.80;64.80;;;;;;2258118;55;20966;-68
2021/07/22 08:26:43;;;;;;;9.00;4.00;;;23.90;64.90;;;;;;2275302;55;21985;-69
2021/07/22 08:29:09;;;;;;;5.87;4.00;;;23.90;64.80;;;;;;2255175;55;20966;-72
2021/07/22 08:31:35;;;;;;;6.53;4.12;;;24.00;64.90;;;;;;2258445;55;22109;-69
2021/07/22 08:34:02;;;;;;;7.05;4.53;;;24.10;64.90;;;;;;2259260;55;21078;-69
2021/07/22 08:36:28;;;;;;;7.37;4.60;;;24.10;64.80;;;;;;2487765;55;21988;-72
2021/07/22 08:38:55;;;;;;;6.80;4.72;;;24.20;64.60;;;;;;2252859;55;20939;-70
2021/07/22 08:41:21;;;;;;;7.93;4.30;;;24.20;64.50;;;;;;2261859;55;20963;-68
2021/07/22 08:43:49;;;;;;;8.35;4.18;;;24.30;64.50;;;;;;2249931;55;21015;-77
2021/07/22 08:46:15;;;;;;;7.37;4.78;;;24.30;64.10;;;;;;2244330;55;21366;-75
2021/07/22 08:48:42;;;;;;;8.18;4.35;;;24.30;64.10;;;;;;2246521;55;20934;-75
2021/07/22 08:51:08;;;;;;;6.80;4.43;;;24.40;64.20;;;;;;2257833;55;21467;-71
2021/07/22 08:53:35;;;;;;;6.45;4.20;;;24.40;64.70;;;;;;2254585;55;20942;-72
2021/07/22 08:56:02;;;;;;;7.15;4.50;;;24.50;64.00;;;;;;2258921;55;20986;-71
2021/07/22 08:58:29;;;;;;;8.57;4.65;;;24.60;64.20;;;;;;2284648;55;20947;-69
2021/07/22 09:00:55;;;;;;;6.18;3.90;;;24.60;64.20;;;;;;2258885;55;20966;-72
2021/07/22 09:03:22;;;;;;;6.45;4.35;;;24.70;64.30;;;;;;2258998;55;20966;-71
2021/07/22 09:05:48;;;;;;;6.85;4.65;;;24.70;64.20;;;;;;2255483;55;21533;-67
2021/07/22 09:08:14;;;;;;;7.40;4.93;;;24.80;64.20;;;;;;2319027;55;21034;-70
2021/07/22 09:10:41;;;;;;;5.78;3.92;;;24.90;64.10;;;;;;2253656;55;20967;-70
2021/07/22 09:13:22;;;;;;;5.80;3.97;;;25.00;64.20;;;;;;2258488;55;21003;-67
2021/07/22 09:15:51;;;;;;;6.57;3.80;;;25.10;63.50;;;;;;2254862;55;20969;-68
2021/07/22 09:18:21;;;;;;;7.28;5.03;;;25.10;64.00;;;;;;2257905;55;21029;-69
2021/07/22 09:20:48;;;;;;;8.52;4.53;;;25.20;64.10;;;;;;2257339;55;22264;-70
2021/07/22 09:23:21;;;;;;;6.03;4.12;;;25.30;64.30;;;;;;2258219;55;20999;-70
2021/07/22 09:25:48;;;;;;;6.43;3.87;;;25.30;64.30;;;;;;2254923;55;20939;-67
2021/07/22 09:28:25;;;;;;;7.15;4.78;;;25.40;63.90;;;;;;2258689;55;20947;-70
2021/07/22 09:31:04;;;;;;;7.22;3.67;;;25.50;63.50;;;;;;2259030;55;20987;-69
2021/07/22 09:33:44;;;;;;;5.80;3.75;;;25.60;62.90;;;;;;2239482;55;21542;-67
2021/07/22 09:36:43;;;;;;;7.20;4.03;;;25.60;63.30;;;;;;2399636;54;21082;-69
2021/07/22 09:39:23;;;;;;;5.53;3.42;;;25.70;62.20;;;;;;2422236;54;21526;-68
2021/07/22 09:42:03;;;;;;;6.45;3.72;;;25.80;62.40;;;;;;2238239;55;21641;-68
2021/07/22 09:44:38;;;;;;;5.95;3.80;;;25.90;62.10;;;;;;2255160;55;21368;-67
2021/07/22 09:47:06;;;;;;;4.60;3.28;;;25.90;62.10;;;;;;2343396;55;21038;-70
2021/07/22 09:49:42;;;;;;;5.70;3.50;;;26.00;62.80;;;;;;2389286;55;20931;-69
2021/07/22 09:53:12;;;;;;;6.07;3.62;;;26.10;61.90;;;;;;2485996;55;21051;-68
2021/07/22 09:55:42;;;;;;;6.65;3.67;;;26.20;61.70;;;;;;2255324;55;21089;-67
2021/07/22 09:58:10;;;;;;;6.70;3.95;;;26.20;63.00;;;;;;2258625;55;20970;-69
2021/07/22 10:00:40;;;;;;;5.78;3.95;;;26.30;61.90;;;;;;2260059;55;20962;-69
2021/07/22 10:03:09;;;;;;;5.12;3.47;;;26.30;61.70;;;;;;2257849;55;20982;-67
2021/07/22 10:06:08;;;;;;;5.97;3.62;;;26.40;62.00;;;;;;2259542;55;21533;-69
2021/07/22 10:08:35;;;;;;;5.03;2.92;;;26.40;61.10;;;;;;2254195;55;20962;-68
2021/07/22 10:11:01;;;;;;;8.95;4.03;;;26.50;62.20;;;;;;2334599;55;20987;-69
2021/07/22 10:13:32;;;;;;;5.97;3.53;;;26.60;62.00;;;;;;2243975;55;21008;-69
2021/07/22 10:16:02;;;;;;;6.28;3.70;;;26.60;61.70;;;;;;2248633;55;21006;-69
2021/07/22 10:18:29;;;;;;;8.65;3.85;;;26.70;61.60;;;;;;2254995;55;20959;-68
2021/07/22 10:20:56;;;;;;;6.12;3.90;;;26.70;61.50;;;;;;2258917;55;20954;-68
2021/07/22 10:23:23;;;;;;;5.12;3.50;;;26.80;61.30;;;;;;2306772;55;21002;-69
2021/07/22 10:25:50;;;;;;;7.20;3.90;;;26.90;61.00;;;;;;2258504;55;22042;-70
2021/07/22 10:28:17;;;;;;;5.22;3.65;;;27.00;60.90;;;;;;2258953;55;20927;-69
2021/07/22 10:30:47;;;;;;;5.57;3.75;;;27.00;60.70;;;;;;2254120;55;20950;-68
2021/07/22 10:33:17;;;;;;;5.60;3.78;;;27.10;60.10;;;;;;2318169;55;22061;-68
2021/07/22 10:35:44;;;;;;;6.90;4.15;;;27.20;60.40;;;;;;2258360;55;20962;-69
2021/07/22 10:38:17;;;;;;;6.40;3.95;;;27.20;60.40;;;;;;2373448;55;21046;-68
2021/07/22 10:41:00;;;;;;;5.80;3.70;;;27.20;60.00;;;;;;2254134;55;20953;-70
2021/07/22 10:46:36;;;;;;;4.72;3.22;;;27.30;60.00;;;;;;2236098;55;20943;-70
2021/07/22 10:49:12;;;;;;;5.00;3.22;;;27.40;59.70;;;;;;2435902;55;21046;-68
2021/07/22 10:51:39;;;;;;;6.70;3.55;;;27.50;59.60;;;;;;2257920;55;21058;-69
2021/07/22 10:54:06;;;;;;;6.72;3.45;;;27.60;60.20;;;;;;2343104;55;20959;-68
2021/07/22 10:56:51;;;;;;;5.62;3.35;;;27.60;60.00;;;;;;2260680;55;20970;-69
2021/07/22 10:59:17;;;;;;;5.05;3.33;;;27.70;58.60;;;;;;2482754;55;21023;-70
2021/07/22 11:01:53;;;;;;;5.37;3.40;;;27.70;59.80;;;;;;2255745;55;21082;-67
2021/07/22 11:05:02;;;;;;;4.18;2.80;;;27.80;59.00;;;;;;2265435;55;21042;-69
2021/07/22 11:07:28;;;;;;;5.62;3.55;;;27.90;58.40;;;;;;2235148;56;20975;-68
2021/07/22 11:10:09;;;;;;;5.82;3.60;;;27.90;59.50;;;;;;2476162;55;20911;-70
2021/07/22 11:12:45;;;;;;;9.13;3.90;;;28.00;59.10;;;;;;2260332;55;22262;-68
2021/07/22 11:15:15;;;;;;;6.20;3.62;;;28.00;58.30;;;;;;2261231;55;21936;-69
2021/07/22 11:17:44;;;;;;;5.87;3.95;;;28.10;58.90;;;;;;2352447;55;20973;-69
2021/07/22 11:21:18;;;;;;;5.87;3.75;;;28.10;58.90;;;;;;2262175;55;20950;-68
2021/07/22 11:23:54;;;;;;;5.15;3.55;;;28.20;58.20;;;;;;2258214;55;21134;-65
2021/07/22 11:26:40;;;;;;;5.43;3.67;;;28.20;58.20;;;;;;2256292;55;21010;-69
2021/07/22 11:29:12;;;;;;;6.03;3.60;;;28.30;57.60;;;;;;2259298;55;20947;-68
2021/07/22 11:31:45;;;;;;;5.07;3.30;;;28.30;58.60;;;;;;2340086;55;21558;-70
2021/07/22 11:34:12;;;;;;;6.18;4.07;;;28.40;58.20;;;;;;2287319;55;20935;-68
2021/07/22 11:36:38;;;;;;;6.10;3.87;;;28.40;58.60;;;;;;2260736;55;21022;-68
2021/07/22 11:39:04;;;;;;;7.25;4.07;;;28.50;58.60;;;;;;2258996;55;20999;-65
2021/07/22 11:41:31;;;;;;;5.05;3.62;;;28.50;58.40;;;;;;2258731;55;21006;-65
2021/07/22 11:44:01;;;;;;;5.68;3.80;;;28.60;58.40;;;;;;2260148;55;22118;-66
2021/07/22 11:46:44;;;;;;;5.00;3.62;;;28.60;57.80;;;;;;2256204;55;21010;-67
2021/07/22 11:49:17;;;;;;;5.05;3.58;;;28.70;57.20;;;;;;2283846;55;20999;-69
2021/07/22 11:51:47;;;;;;;5.18;3.33;;;28.70;57.40;;;;;;2255039;55;21331;-67
2021/07/22 11:54:14;;;;;;;6.30;3.80;;;28.80;57.60;;;;;;2332634;55;21097;-67
2021/07/22 11:56:40;;;;;;;5.15;3.45;;;28.80;57.80;;;;;;2278520;55;20977;-68
2021/07/22 11:59:10;;;;;;;5.25;3.60;;;28.90;57.80;;;;;;2259343;55;21501;-71
2021/07/22 12:02:10;;;;;;;5.75;3.70;;;29.00;57.70;;;;;;2410472;55;20986;-69
2021/07/22 12:04:37;;;;;;;6.00;3.60;;;29.10;56.90;;;;;;2236627;56;21042;-68
2021/07/22 12:07:04;;;;;;;6.45;3.22;;;29.10;57.80;;;;;;2257371;55;21940;-66
2021/07/22 12:09:30;;;;;;;6.05;3.83;;;29.20;57.70;;;;;;2492222;55;20938;-66
2021/07/22 12:11:58;;;;;;;5.90;3.75;;;29.20;57.40;;;;;;2261709;55;20942;-67
2021/07/22 12:14:42;;;;;;;6.40;4.10;;;29.30;57.40;;;;;;2261762;55;20942;-67
2021/07/22 12:17:09;;;;;;;5.22;3.58;;;29.30;56.20;;;;;;2274095;55;21003;-68
2021/07/22 12:19:37;;;;;;;5.25;3.67;;;29.40;57.50;;;;;;2262889;55;20955;-67
2021/07/22 12:22:26;;;;;;;5.37;3.50;;;29.40;57.40;;;;;;2263871;55;21325;-68
2021/07/22 12:25:10;;;;;;;5.82;3.78;;;29.50;56.60;;;;;;2263844;55;20950;-67
2021/07/22 12:27:44;;;;;;;4.82;3.45;;;29.50;56.60;;;;;;2264434;55;21006;-67
2021/07/22 12:30:35;;;;;;;5.97;4.00;;;29.60;57.10;;;;;;2448001;55;20995;-67
2021/07/22 12:33:03;;;;;;;5.30;3.40;;;29.70;56.20;;;;;;2463048;55;20998;-66
2021/07/22 12:35:38;;;;;;;5.93;3.92;;;29.70;57.00;;;;;;2264163;55;20962;-67
2021/07/22 12:38:05;;;;;;;5.65;3.78;;;29.80;56.60;;;;;;2265774;55;21115;-65
2021/07/22 12:40:48;;;;;;;9.60;3.90;;;29.80;56.40;;;;;;2268093;55;21038;-69
2021/07/22 12:43:16;;;;;;;5.75;3.75;;;29.80;55.80;;;;;;2264918;55;21488;-66
2021/07/22 12:45:44;;;;;;;7.32;3.70;;;29.80;56.30;;;;;;2260921;55;21481;-68
2021/07/22 12:48:12;;;;;;;5.62;3.30;;;29.90;56.30;;;;;;2306865;55;21082;-69
2021/07/22 12:50:50;;;;;;;7.25;3.60;;;29.90;56.60;;;;;;2238467;56;20982;-68
2021/07/22 12:53:18;;;;;;;4.85;3.17;;;30.00;56.60;;;;;;2264246;55;21097;-69
2021/07/22 12:55:44;;;;;;;5.53;3.65;;;30.00;56.50;;;;;;2348629;55;21463;-69
2021/07/22 12:58:34;;;;;;;6.12;3.83;;;30.10;56.30;;;;;;2264095;55;21510;-67
2021/07/22 13:01:08;;;;;;;5.07;3.83;;;30.10;55.30;;;;;;2263697;55;21078;-68
2021/07/22 13:03:39;;;;;;;6.12;4.05;;;30.20;55.10;;;;;;2305160;55;20997;-67